Time;durP1;ratioP1;P1;durP2;ratioP2;P2;SDS_P1;SDS_P2;PMS_P1;PMS_P2;Temp;Humidity;BMP_temperature;BMP_pressure;BME280_temperature;BME280_humidity;BME280_pressure;Samples;Min_cycle;Max_cycle;Signal;HPM_P1;HPM_P2
2020/12/03 00:00:43;;;;;;;5.35;4.68;;;28.70;65.90;;;;;;5057656;28;20672;-59
2020/12/03 00:03:20;;;;;;;5.32;4.40;;;28.70;65.80;;;;;;5087196;28;20236;-57
2020/12/03 00:05:55;;;;;;;3.90;3.60;;;28.70;66.00;;;;;;5106051;27;20254;-60
2020/12/03 00:08:26;;;;;;;5.35;4.85;;;28.70;66.00;;;;;;5118628;27;20265;-60
2020/12/03 00:10:56;;;;;;;4.80;4.40;;;28.60;66.00;;;;;;5121577;27;20712;-58
2020/12/03 00:13:28;;;;;;;4.78;4.15;;;28.60;66.20;;;;;;5111894;27;20251;-58
2020/12/03 00:16:00;;;;;;;4.63;4.10;;;28.60;66.20;;;;;;5106012;27;20644;-58
2020/12/03 00:18:31;;;;;;;4.30;3.90;;;28.60;66.40;;;;;;5104445;27;20228;-58
2020/12/03 00:21:02;;;;;;;4.65;4.20;;;28.60;66.40;;;;;;5123790;27;20234;-59
2020/12/03 00:23:33;;;;;;;4.28;3.88;;;28.60;66.50;;;;;;5105955;27;20312;-58
2020/12/03 00:26:03;;;;;;;5.30;4.38;;;28.60;66.50;;;;;;5119962;27;20608;-59
2020/12/03 00:28:37;;;;;;;7.97;4.55;;;28.70;66.60;;;;;;5108254;27;20227;-60
2020/12/03 00:31:07;;;;;;;4.72;4.00;;;28.70;66.60;;;;;;5103375;27;20284;-60
2020/12/03 00:33:38;;;;;;;5.45;4.20;;;28.60;66.50;;;;;;5110697;27;20223;-60
2020/12/03 00:36:08;;;;;;;4.57;4.15;;;28.70;66.50;;;;;;5107231;28;20220;-60
2020/12/03 00:38:39;;;;;;;5.65;5.00;;;28.70;66.60;;;;;;5108592;27;20238;-58
2020/12/03 00:41:10;;;;;;;5.68;4.13;;;28.70;66.70;;;;;;5101190;27;20228;-60
2020/12/03 00:43:41;;;;;;;5.47;4.60;;;28.70;66.80;;;;;;5102494;28;20229;-61
2020/12/03 00:46:12;;;;;;;4.72;4.22;;;28.70;66.90;;;;;;5096430;28;20228;-59
2020/12/03 00:48:42;;;;;;;5.93;4.32;;;28.70;67.00;;;;;;5106474;27;20267;-60
2020/12/03 00:51:13;;;;;;;5.78;4.80;;;28.70;67.10;;;;;;5104294;27;20249;-57
2020/12/03 00:53:44;;;;;;;6.10;4.35;;;28.70;67.10;;;;;;5102970;28;20300;-60
2020/12/03 00:56:17;;;;;;;7.38;4.78;;;28.70;67.20;;;;;;5098780;28;20223;-59
2020/12/03 00:58:49;;;;;;;4.97;4.47;;;28.70;67.30;;;;;;5103675;28;20227;-60
2020/12/03 01:01:20;;;;;;;5.60;4.90;;;28.70;67.30;;;;;;5108228;27;20284;-60
2020/12/03 01:03:51;;;;;;;4.97;4.47;;;28.70;67.40;;;;;;5114951;27;20310;-58
2020/12/03 01:06:21;;;;;;;4.80;4.30;;;28.70;67.50;;;;;;5109733;28;20242;-60
2020/12/03 01:08:52;;;;;;;6.45;4.82;;;28.70;67.50;;;;;;5117890;27;20284;-60
2020/12/03 01:11:23;;;;;;;5.25;4.75;;;28.70;67.50;;;;;;5111685;27;20236;-58
2020/12/03 01:13:55;;;;;;;6.53;4.38;;;28.80;67.60;;;;;;5107207;28;20232;-59
2020/12/03 01:16:26;;;;;;;4.82;4.28;;;28.80;67.30;;;;;;5101988;27;20232;-59
2020/12/03 01:18:57;;;;;;;4.38;3.97;;;28.80;67.50;;;;;;5097792;27;20702;-59
2020/12/03 01:21:28;;;;;;;4.90;4.38;;;28.80;67.50;;;;;;5104235;27;20224;-58
2020/12/03 01:23:58;;;;;;;5.57;4.88;;;28.90;67.30;;;;;;5106779;28;20702;-59
2020/12/03 01:26:29;;;;;;;4.80;4.30;;;29.00;67.40;;;;;;5105965;27;20229;-60
2020/12/03 01:29:01;;;;;;;5.25;4.68;;;29.00;67.40;;;;;;5108844;27;20220;-59
2020/12/03 01:31:32;;;;;;;6.07;4.63;;;29.00;67.20;;;;;;5105125;28;20228;-60
2020/12/03 01:34:02;;;;;;;8.25;4.43;;;29.10;67.20;;;;;;5099404;27;20246;-59
2020/12/03 01:36:33;;;;;;;5.80;4.38;;;29.10;67.10;;;;;;5107085;27;20246;-59
2020/12/03 01:39:04;;;;;;;7.10;5.32;;;29.10;67.10;;;;;;5106463;28;20738;-59
2020/12/03 01:41:35;;;;;;;6.07;4.75;;;29.20;66.90;;;;;;5116615;27;20242;-60
2020/12/03 01:44:06;;;;;;;4.97;4.53;;;29.20;67.00;;;;;;5125000;27;20314;-60
2020/12/03 01:46:38;;;;;;;5.15;4.38;;;29.30;67.10;;;;;;5109367;28;20224;-60
2020/12/03 01:49:14;;;;;;;5.97;4.40;;;29.30;67.20;;;;;;5108752;27;20227;-58
2020/12/03 01:51:45;;;;;;;5.75;4.50;;;29.40;66.90;;;;;;5046579;28;20241;-59
2020/12/03 01:54:16;;;;;;;5.70;4.90;;;29.40;66.90;;;;;;5048909;28;20245;-59
2020/12/03 01:56:56;;;;;;;4.88;4.47;;;29.50;66.80;;;;;;5035783;28;20316;-59
2020/12/03 01:59:29;;;;;;;5.72;5.13;;;29.60;66.20;;;;;;5057823;28;20236;-58
2020/12/03 02:02:00;;;;;;;5.07;4.57;;;29.60;66.70;;;;;;5052697;28;20670;-58
2020/12/03 02:04:31;;;;;;;4.75;4.22;;;29.70;65.60;;;;;;5045821;28;20222;-60
2020/12/03 02:07:02;;;;;;;4.95;4.00;;;29.70;65.60;;;;;;5044956;28;20298;-60
2020/12/03 02:09:32;;;;;;;5.75;4.22;;;29.80;65.60;;;;;;5040919;28;20237;-59
2020/12/03 02:12:04;;;;;;;5.25;4.40;;;29.80;65.70;;;;;;5035416;28;20234;-59
2020/12/03 02:14:36;;;;;;;7.32;4.35;;;29.90;65.40;;;;;;5051713;28;20237;-59
2020/12/03 02:17:06;;;;;;;4.47;4.07;;;29.90;65.00;;;;;;5040499;28;20997;-59
2020/12/03 02:19:41;;;;;;;5.97;4.32;;;30.00;65.80;;;;;;5034934;28;20244;-59
2020/12/03 02:22:13;;;;;;;5.07;4.25;;;30.00;64.90;;;;;;5053400;28;20316;-59
2020/12/03 02:24:44;;;;;;;5.55;4.50;;;30.00;64.30;;;;;;5108303;27;20591;-60
2020/12/03 02:27:17;;;;;;;4.85;4.35;;;30.10;64.10;;;;;;5105974;28;20265;-60
2020/12/03 02:29:48;;;;;;;5.07;4.68;;;30.10;64.20;;;;;;5103713;28;20246;-59
2020/12/03 02:32:19;;;;;;;5.28;4.40;;;30.10;63.90;;;;;;5106188;28;20243;-59
2020/12/03 02:34:50;;;;;;;5.72;4.43;;;30.10;64.10;;;;;;5100602;27;20256;-60
2020/12/03 02:37:22;;;;;;;6.90;5.05;;;30.10;63.90;;;;;;5105708;27;20224;-58
2020/12/03 02:39:54;;;;;;;4.85;4.30;;;30.00;63.70;;;;;;5093939;28;20241;-60
2020/12/03 02:42:24;;;;;;;4.78;4.03;;;30.10;63.90;;;;;;5100750;27;20243;-60
2020/12/03 02:44:55;;;;;;;6.90;5.00;;;30.10;64.10;;;;;;5103281;27;20707;-60
2020/12/03 02:47:25;;;;;;;5.65;4.68;;;30.10;64.20;;;;;;5103248;28;20228;-59
2020/12/03 02:49:56;;;;;;;6.00;4.45;;;30.10;64.20;;;;;;5096739;28;20223;-59
2020/12/03 02:52:28;;;;;;;5.55;4.25;;;30.10;64.30;;;;;;5105291;28;20224;-59
2020/12/03 02:54:59;;;;;;;6.65;4.93;;;30.10;64.40;;;;;;5102523;27;20277;-60
2020/12/03 02:57:29;;;;;;;5.10;4.60;;;30.10;64.50;;;;;;5094005;28;20232;-60
2020/12/03 02:59:59;;;;;;;5.38;4.88;;;30.10;64.50;;;;;;5098053;28;20691;-59
2020/12/03 03:02:30;;;;;;;6.47;4.60;;;30.20;64.60;;;;;;5096821;28;20228;-59
2020/12/03 03:05:00;;;;;;;5.38;4.88;;;30.20;64.40;;;;;;5094210;28;20888;-60
2020/12/03 03:07:32;;;;;;;4.97;4.57;;;30.20;64.60;;;;;;5100626;27;20731;-59
2020/12/03 03:10:03;;;;;;;5.07;4.57;;;30.20;64.60;;;;;;5098609;28;20229;-59
2020/12/03 03:12:33;;;;;;;6.47;4.60;;;30.20;64.70;;;;;;5109061;27;20280;-59
2020/12/03 03:15:04;;;;;;;5.47;4.93;;;30.30;64.90;;;;;;5091002;28;20232;-60
2020/12/03 03:17:35;;;;;;;5.53;5.03;;;30.30;64.60;;;;;;5101615;28;20232;-60
2020/12/03 03:20:06;;;;;;;5.50;5.00;;;30.40;64.50;;;;;;5100955;28;20231;-57
2020/12/03 03:22:40;;;;;;;5.22;4.72;;;30.40;64.50;;;;;;5109852;27;20247;-53
2020/12/03 03:25:10;;;;;;;5.47;4.97;;;30.50;64.80;;;;;;5107716;27;20246;-55
2020/12/03 03:27:41;;;;;;;6.15;4.97;;;30.50;64.90;;;;;;5104411;28;20326;-57
2020/12/03 03:30:12;;;;;;;5.47;4.97;;;30.60;64.80;;;;;;5105368;28;20229;-55
2020/12/03 03:32:42;;;;;;;7.88;5.13;;;30.70;64.40;;;;;;5114393;28;20226;-54
2020/12/03 03:35:17;;;;;;;6.95;5.28;;;30.70;64.40;;;;;;5108908;28;20235;-54
2020/12/03 03:37:49;;;;;;;5.97;5.25;;;30.80;64.50;;;;;;5113434;27;20223;-54
2020/12/03 03:40:19;;;;;;;5.20;4.70;;;30.90;64.10;;;;;;5109902;27;20246;-54
2020/12/03 03:42:50;;;;;;;9.23;4.93;;;30.90;63.80;;;;;;5113430;27;20303;-55
2020/12/03 03:45:21;;;;;;;9.02;5.60;;;31.00;63.90;;;;;;5118747;28;20249;-55
2020/12/03 03:47:51;;;;;;;5.32;4.20;;;31.10;64.60;;;;;;5114859;27;20749;-55
2020/12/03 03:50:22;;;;;;;4.72;4.22;;;31.20;63.50;;;;;;5121631;27;20612;-56
2020/12/03 03:52:54;;;;;;;5.93;4.90;;;31.30;62.90;;;;;;5105819;27;20235;-55
2020/12/03 03:55:24;;;;;;;6.05;4.55;;;31.40;63.00;;;;;;5114673;28;20232;-54
2020/12/03 03:57:54;;;;;;;5.78;4.38;;;31.50;63.20;;;;;;5097444;28;20225;-57
2020/12/03 04:00:25;;;;;;;10.10;4.80;;;31.60;62.60;;;;;;5115037;28;20230;-54
2020/12/03 04:02:55;;;;;;;5.05;4.20;;;31.70;62.30;;;;;;5102489;28;20232;-56
2020/12/03 04:05:26;;;;;;;4.90;4.50;;;31.70;62.00;;;;;;5108368;27;20232;-54
2020/12/03 04:07:58;;;;;;;5.35;4.85;;;31.90;62.20;;;;;;5097058;28;20228;-55
2020/12/03 04:10:28;;;;;;;5.15;4.65;;;31.90;61.50;;;;;;5113032;27;20238;-54
2020/12/03 04:12:59;;;;;;;7.07;4.07;;;32.10;61.30;;;;;;5102987;27;20228;-54
2020/12/03 04:15:29;;;;;;;5.35;4.38;;;32.10;60.90;;;;;;5094369;27;20223;-57
2020/12/03 04:18:00;;;;;;;4.88;4.40;;;32.20;60.60;;;;;;5101065;28;20239;-55
2020/12/03 04:20:31;;;;;;;5.20;4.70;;;32.20;60.70;;;;;;5111650;28;20311;-57
2020/12/03 04:23:03;;;;;;;11.35;5.07;;;32.30;60.30;;;;;;5110738;27;20224;-55
2020/12/03 04:25:34;;;;;;;7.03;4.80;;;32.40;59.40;;;;;;5103876;28;20288;-57
2020/12/03 04:28:05;;;;;;;5.72;4.55;;;32.40;59.40;;;;;;5107982;28;20220;-56
2020/12/03 04:30:35;;;;;;;4.35;3.95;;;32.50;59.40;;;;;;5113976;28;20224;-59
2020/12/03 04:33:06;;;;;;;5.63;4.50;;;32.60;59.80;;;;;;5124257;27;20293;-58
2020/12/03 04:35:37;;;;;;;5.53;4.82;;;32.60;59.60;;;;;;5109705;28;20240;-57
2020/12/03 04:38:09;;;;;;;4.82;4.35;;;32.70;59.30;;;;;;5107124;28;20232;-57
2020/12/03 04:40:40;;;;;;;5.97;4.03;;;32.80;59.10;;;;;;5109925;28;20221;-55
2020/12/03 04:43:30;;;;;;;5.30;3.80;;;32.80;59.20;;;;;;5111449;28;20247;-55
2020/12/03 04:46:03;;;;;;;5.10;4.68;;;32.90;59.20;;;;;;5043120;28;20292;-57
2020/12/03 04:49:05;;;;;;;6.40;5.05;;;33.00;58.50;;;;;;5047728;28;20239;-56
2020/12/03 04:51:56;;;;;;;6.47;4.43;;;33.00;58.30;;;;;;5046993;28;20233;-56
2020/12/03 04:54:29;;;;;;;6.70;4.38;;;33.10;58.30;;;;;;5002427;28;20220;-57
2020/12/03 04:57:03;;;;;;;4.55;4.15;;;33.10;57.90;;;;;;4993340;28;20330;-58
2020/12/03 04:59:47;;;;;;;7.28;4.50;;;33.10;58.00;;;;;;5007494;28;20257;-57
2020/12/03 05:02:52;;;;;;;4.57;4.03;;;33.10;58.00;;;;;;5010462;28;20426;-57
2020/12/03 05:05:27;;;;;;;4.03;3.72;;;33.10;58.20;;;;;;5004017;28;20750;-55
2020/12/03 05:08:02;;;;;;;5.57;4.68;;;33.20;58.20;;;;;;5003866;28;20329;-57
2020/12/03 05:10:39;;;;;;;5.15;4.20;;;33.20;58.00;;;;;;5008921;28;20261;-56
2020/12/03 05:13:19;;;;;;;4.80;4.32;;;33.20;58.30;;;;;;4967619;28;20280;-55
2020/12/03 05:15:51;;;;;;;5.18;4.68;;;33.20;58.10;;;;;;4964887;28;20618;-56
2020/12/03 05:18:37;;;;;;;6.25;4.57;;;33.20;58.00;;;;;;4997556;28;20238;-57
2020/12/03 05:21:11;;;;;;;5.40;4.88;;;33.20;58.20;;;;;;5020449;28;20234;-55
2020/12/03 05:23:43;;;;;;;4.97;4.18;;;33.30;57.60;;;;;;5019739;28;20227;-56
2020/12/03 05:26:18;;;;;;;4.28;3.80;;;33.30;57.70;;;;;;5034207;28;20289;-56
2020/12/03 05:28:54;;;;;;;4.43;3.60;;;33.30;57.90;;;;;;5052281;28;20328;-55
2020/12/03 05:31:29;;;;;;;5.63;4.50;;;33.40;58.00;;;;;;5057546;28;20228;-56
2020/12/03 05:34:08;;;;;;;4.85;4.30;;;33.40;57.60;;;;;;5052783;28;21030;-55
2020/12/03 05:36:40;;;;;;;11.10;6.10;;;33.50;57.70;;;;;;5060052;28;20233;-57
2020/12/03 05:39:14;;;;;;;5.68;4.53;;;33.60;57.30;;;;;;5050786;28;20230;-56
2020/12/03 05:41:48;;;;;;;4.53;4.13;;;33.70;57.00;;;;;;5055785;28;20229;-55
2020/12/03 05:44:23;;;;;;;5.30;4.53;;;33.80;57.40;;;;;;5090299;27;20234;-57
2020/12/03 05:46:54;;;;;;;4.93;4.53;;;33.80;57.00;;;;;;5107796;27;20224;-57
2020/12/03 05:49:27;;;;;;;5.13;4.63;;;33.90;56.30;;;;;;5056424;28;20229;-56
2020/12/03 05:52:18;;;;;;;5.35;4.50;;;33.90;56.00;;;;;;5055940;28;20923;-54
2020/12/03 05:54:59;;;;;;;4.95;4.15;;;33.90;56.30;;;;;;5067419;28;20225;-56
2020/12/03 05:57:32;;;;;;;5.70;4.60;;;34.00;56.60;;;;;;5057556;28;20324;-56
2020/12/03 06:00:24;;;;;;;5.65;4.40;;;34.00;56.00;;;;;;5085155;28;20229;-55
2020/12/03 06:03:07;;;;;;;4.43;4.03;;;34.00;56.10;;;;;;5060857;28;20764;-56
2020/12/03 06:05:40;;;;;;;4.93;4.45;;;34.10;56.20;;;;;;5055905;28;20244;-53
2020/12/03 06:08:27;;;;;;;5.07;4.57;;;34.10;55.90;;;;;;5021755;28;20226;-55
2020/12/03 06:11:07;;;;;;;4.88;4.25;;;34.10;55.60;;;;;;5010515;28;20357;-58
2020/12/03 06:13:51;;;;;;;4.45;4.05;;;34.10;55.70;;;;;;4966155;28;20244;-57
2020/12/03 06:16:29;;;;;;;4.80;4.40;;;34.20;55.80;;;;;;4967737;28;20243;-59
2020/12/03 06:19:29;;;;;;;4.43;4.03;;;34.20;56.00;;;;;;4961677;28;20308;-57
2020/12/03 06:22:05;;;;;;;5.20;4.40;;;34.30;55.70;;;;;;4972320;28;20334;-60
2020/12/03 06:24:56;;;;;;;5.35;3.90;;;34.30;55.10;;;;;;4984880;28;20239;-59
2020/12/03 06:27:46;;;;;;;5.53;4.00;;;34.40;55.00;;;;;;4984572;28;20234;-57
2020/12/03 06:30:21;;;;;;;5.40;4.25;;;34.40;54.60;;;;;;4994014;28;20235;-60
2020/12/03 06:33:26;;;;;;;4.38;3.97;;;34.40;55.10;;;;;;4995536;28;20380;-59
2020/12/03 06:35:59;;;;;;;5.80;4.22;;;34.40;55.30;;;;;;4956916;28;20683;-58
2020/12/03 06:38:36;;;;;;;4.68;3.65;;;34.50;55.30;;;;;;4960264;28;20240;-56
2020/12/03 06:41:28;;;;;;;5.35;4.38;;;34.50;55.00;;;;;;4966410;28;20279;-56
2020/12/03 06:44:06;;;;;;;4.07;3.78;;;34.60;55.10;;;;;;4963247;28;20229;-57
2020/12/03 06:47:12;;;;;;;4.13;3.72;;;34.60;54.60;;;;;;4964922;28;20365;-57
2020/12/03 06:50:17;;;;;;;4.45;4.05;;;34.60;55.00;;;;;;4963612;28;20695;-58
2020/12/03 06:53:23;;;;;;;4.90;4.50;;;34.70;54.90;;;;;;4945217;28;20649;-56
2020/12/03 06:56:18;;;;;;;6.35;3.80;;;34.80;54.70;;;;;;4964177;28;20663;-57
2020/12/03 06:59:32;;;;;;;4.35;3.95;;;34.80;54.20;;;;;;4963365;28;20307;-59
2020/12/03 07:02:30;;;;;;;4.57;4.18;;;34.80;54.00;;;;;;5020027;28;20309;-53
2020/12/03 07:05:30;;;;;;;4.53;4.13;;;34.80;53.90;;;;;;5027852;28;20253;-57
2020/12/03 07:08:18;;;;;;;5.45;3.63;;;34.80;53.50;;;;;;5027211;28;20254;-56
2020/12/03 07:11:28;;;;;;;4.40;4.00;;;34.70;53.90;;;;;;4990431;28;20229;-57
2020/12/03 07:14:37;;;;;;;4.22;3.92;;;34.70;53.90;;;;;;5042401;28;20214;-58
2020/12/03 07:17:29;;;;;;;3.97;3.58;;;34.70;53.90;;;;;;5014176;28;20398;-59
2020/12/03 07:20:43;;;;;;;5.90;3.60;;;34.80;53.70;;;;;;5040585;28;20233;-57
2020/12/03 07:23:15;;;;;;;4.78;3.80;;;34.70;53.70;;;;;;4911509;29;20294;-58
2020/12/03 07:25:48;;;;;;;5.05;4.28;;;34.70;53.50;;;;;;4911604;29;20234;-59
2020/12/03 07:28:23;;;;;;;4.22;3.83;;;34.70;53.70;;;;;;4951512;28;20238;-59
2020/12/03 07:30:56;;;;;;;4.43;4.10;;;34.70;53.80;;;;;;4992806;28;20706;-59
2020/12/03 07:33:33;;;;;;;4.85;3.55;;;34.60;54.00;;;;;;4988541;28;20657;-58
2020/12/03 07:36:28;;;;;;;4.68;3.50;;;34.60;53.70;;;;;;5027558;28;20324;-59
2020/12/03 07:39:00;;;;;;;3.97;3.67;;;34.60;54.20;;;;;;5038259;28;21034;-58
2020/12/03 07:41:31;;;;;;;3.85;3.53;;;34.60;53.40;;;;;;5038180;28;20645;-58
2020/12/03 07:44:18;;;;;;;3.53;3.15;;;34.60;53.70;;;;;;5021141;28;20294;-56
2020/12/03 07:46:49;;;;;;;3.70;3.40;;;34.60;54.00;;;;;;4999913;28;20226;-57
2020/12/03 07:49:43;;;;;;;4.93;3.45;;;34.60;53.80;;;;;;5028514;28;20701;-58
2020/12/03 07:52:24;;;;;;;5.63;3.90;;;34.70;54.00;;;;;;5024575;28;20317;-58
2020/12/03 07:54:55;;;;;;;4.28;3.88;;;34.70;53.60;;;;;;5026067;28;20320;-56
2020/12/03 07:57:27;;;;;;;4.60;3.65;;;34.80;53.60;;;;;;5027349;28;20326;-59
2020/12/03 07:59:59;;;;;;;4.50;4.05;;;34.80;53.20;;;;;;4967640;28;20676;-58
2020/12/03 08:02:57;;;;;;;4.38;3.70;;;34.80;53.30;;;;;;4970237;28;20236;-57
2020/12/03 08:05:52;;;;;;;5.43;3.90;;;34.90;53.70;;;;;;4954877;28;20285;-60
2020/12/03 08:08:36;;;;;;;5.80;4.10;;;34.90;53.60;;;;;;5010741;28;20330;-59
2020/12/03 08:11:07;;;;;;;4.55;4.13;;;34.90;53.30;;;;;;5014324;28;20592;-60
2020/12/03 08:13:38;;;;;;;4.30;3.88;;;34.90;53.00;;;;;;5019698;28;20314;-60
2020/12/03 08:16:11;;;;;;;4.60;4.20;;;34.90;52.90;;;;;;5037368;28;20236;-59
2020/12/03 08:18:43;;;;;;;5.35;4.30;;;34.90;53.10;;;;;;5043572;28;20234;-60
2020/12/03 08:21:15;;;;;;;4.20;3.75;;;34.90;52.90;;;;;;5042263;28;20226;-59
2020/12/03 08:23:53;;;;;;;3.78;3.25;;;34.90;52.40;;;;;;5043449;28;20595;-60
2020/12/03 08:26:28;;;;;;;5.47;3.50;;;34.90;52.70;;;;;;5039912;28;20242;-58
2020/12/03 08:28:59;;;;;;;4.53;4.13;;;34.90;53.20;;;;;;5042146;28;20233;-60
2020/12/03 08:31:28;;;;;;;4.93;4.15;;;34.80;53.00;;;;;;5091051;28;20236;-60
2020/12/03 08:34:00;;;;;;;4.70;3.42;;;34.80;52.60;;;;;;5102473;28;20232;-60
2020/12/03 08:36:31;;;;;;;5.40;4.00;;;34.80;52.80;;;;;;5102803;28;20589;-58
2020/12/03 08:39:01;;;;;;;4.07;3.67;;;34.80;52.60;;;;;;5103229;28;21092;-59
2020/12/03 08:41:32;;;;;;;6.13;3.72;;;34.80;52.80;;;;;;5101644;27;20317;-60
2020/12/03 08:44:04;;;;;;;3.67;3.38;;;34.90;53.10;;;;;;5099753;28;20238;-59
2020/12/03 08:46:35;;;;;;;3.88;3.58;;;34.90;52.90;;;;;;5102348;28;20239;-60
2020/12/03 08:49:07;;;;;;;4.03;3.42;;;34.90;52.70;;;;;;5097172;28;20236;-60
2020/12/03 08:51:39;;;;;;;5.15;3.83;;;34.90;52.80;;;;;;5037061;28;20268;-60
2020/12/03 08:54:10;;;;;;;4.43;4.00;;;34.90;52.20;;;;;;5033910;28;20329;-60
2020/12/03 08:56:41;;;;;;;4.20;3.80;;;34.90;52.00;;;;;;5029702;28;20238;-60
2020/12/03 08:59:12;;;;;;;4.20;3.58;;;34.90;52.20;;;;;;4986189;28;20229;-61
2020/12/03 09:01:43;;;;;;;4.80;3.70;;;34.80;52.20;;;;;;4986902;28;20619;-59
2020/12/03 09:04:17;;;;;;;3.97;3.45;;;34.80;52.20;;;;;;4985644;28;20305;-59
2020/12/03 09:06:49;;;;;;;4.60;4.20;;;34.80;52.60;;;;;;4985384;28;20232;-59
2020/12/03 09:09:20;;;;;;;3.70;3.40;;;34.80;52.60;;;;;;4986787;28;20844;-59
2020/12/03 09:11:51;;;;;;;3.83;3.50;;;34.80;52.70;;;;;;4984894;28;20240;-60
2020/12/03 09:14:22;;;;;;;6.28;3.80;;;34.70;52.60;;;;;;4987135;28;20224;-59
2020/12/03 09:16:58;;;;;;;4.50;4.10;;;34.80;52.80;;;;;;4983846;28;20270;-58
2020/12/03 09:19:30;;;;;;;6.75;3.97;;;34.80;52.70;;;;;;4982204;28;20231;-61
2020/12/03 09:22:00;;;;;;;4.80;4.22;;;34.80;52.70;;;;;;5000932;28;20689;-60
2020/12/03 09:24:31;;;;;;;5.85;4.32;;;34.70;52.70;;;;;;5033770;28;20347;-60
2020/12/03 09:27:04;;;;;;;4.25;3.85;;;34.70;52.90;;;;;;5033535;28;20234;-60
2020/12/03 09:29:36;;;;;;;4.68;4.28;;;34.70;53.10;;;;;;5034853;28;20237;-60
2020/12/03 09:32:14;;;;;;;5.05;4.30;;;34.70;53.00;;;;;;5036139;28;20233;-60
2020/12/03 09:34:48;;;;;;;4.25;3.88;;;34.60;52.70;;;;;;5038705;28;20225;-60
2020/12/03 09:37:19;;;;;;;5.57;4.50;;;34.60;52.80;;;;;;5004456;28;20246;-61
2020/12/03 09:39:49;;;;;;;4.70;4.20;;;34.60;52.60;;;;;;4996598;28;20227;-58
2020/12/03 09:42:20;;;;;;;4.35;3.95;;;34.60;52.60;;;;;;4960769;28;20649;-61
2020/12/03 09:44:57;;;;;;;4.10;3.70;;;34.60;52.70;;;;;;4966749;28;20709;-61
2020/12/03 09:47:29;;;;;;;3.88;3.58;;;34.50;52.80;;;;;;4963494;28;20228;-59
2020/12/03 09:50:01;;;;;;;5.50;4.15;;;34.50;53.20;;;;;;4904626;29;20245;-60
2020/12/03 09:52:31;;;;;;;6.10;4.18;;;34.50;52.90;;;;;;4907459;29;20242;-60
2020/12/03 09:55:13;;;;;;;4.13;3.83;;;34.50;53.10;;;;;;4893486;28;20233;-59
2020/12/03 09:57:52;;;;;;;4.70;4.30;;;34.50;53.00;;;;;;4927976;29;20237;-60
2020/12/03 10:00:26;;;;;;;4.32;3.88;;;34.50;52.90;;;;;;4931099;29;20700;-60
2020/12/03 10:03:33;;;;;;;4.97;4.50;;;34.50;52.90;;;;;;4931557;28;20239;-60
2020/12/03 10:06:10;;;;;;;3.97;3.63;;;34.40;53.10;;;;;;4938070;28;21204;-59
2020/12/03 10:09:17;;;;;;;4.07;3.65;;;34.50;53.60;;;;;;4941716;28;20233;-59
2020/12/03 10:12:18;;;;;;;4.03;3.72;;;34.60;53.70;;;;;;4946971;28;20309;-59
2020/12/03 10:15:12;;;;;;;4.70;4.30;;;34.70;53.20;;;;;;4955805;28;20251;-60
2020/12/03 10:18:08;;;;;;;4.90;4.47;;;34.80;52.70;;;;;;4963982;28;20271;-59
2020/12/03 10:20:39;;;;;;;4.63;4.22;;;34.70;52.60;;;;;;4991333;28;20300;-59
2020/12/03 10:23:45;;;;;;;5.35;4.40;;;34.60;52.50;;;;;;5020797;28;20239;-59
2020/12/03 10:26:34;;;;;;;5.10;4.60;;;34.50;52.80;;;;;;5002249;28;20230;-61
2020/12/03 10:29:16;;;;;;;4.20;3.80;;;34.50;52.80;;;;;;5001169;28;20740;-59
2020/12/03 10:31:46;;;;;;;4.20;3.80;;;34.30;53.00;;;;;;5033311;28;20230;-60
2020/12/03 10:34:17;;;;;;;4.15;3.75;;;34.20;53.10;;;;;;5039493;28;20403;-60
2020/12/03 10:36:53;;;;;;;5.20;4.07;;;34.10;53.20;;;;;;4983163;28;20823;-59
2020/12/03 10:39:28;;;;;;;4.22;3.83;;;34.00;53.30;;;;;;4982456;28;20235;-59
2020/12/03 10:41:58;;;;;;;5.18;4.13;;;33.90;53.50;;;;;;4979858;28;20350;-58
2020/12/03 10:44:29;;;;;;;5.53;4.60;;;33.80;53.50;;;;;;5000685;28;20349;-60
2020/12/03 10:47:03;;;;;;;4.80;4.30;;;33.70;53.60;;;;;;5009264;28;20321;-60
2020/12/03 10:49:36;;;;;;;5.13;4.45;;;33.60;53.70;;;;;;5037138;28;20314;-59
2020/12/03 10:52:07;;;;;;;5.50;5.00;;;33.50;53.80;;;;;;5035132;28;20230;-58
2020/12/03 10:54:39;;;;;;;5.05;4.63;;;33.50;53.90;;;;;;5023078;28;20694;-60
2020/12/03 10:57:16;;;;;;;5.32;4.30;;;33.40;54.20;;;;;;5035711;28;20931;-60
2020/12/03 10:59:47;;;;;;;6.25;4.30;;;33.30;54.40;;;;;;5039625;28;20328;-59
2020/12/03 11:02:27;;;;;;;4.93;3.97;;;33.20;54.50;;;;;;5042677;28;20241;-58
2020/12/03 11:04:57;;;;;;;4.30;3.72;;;33.10;54.80;;;;;;5034851;28;20245;-59
2020/12/03 11:07:27;;;;;;;4.03;3.70;;;33.00;54.80;;;;;;5055284;28;20240;-59
2020/12/03 11:09:59;;;;;;;5.18;3.97;;;33.00;55.10;;;;;;5096800;28;20261;-60
2020/12/03 11:12:29;;;;;;;4.72;4.20;;;32.90;55.20;;;;;;5100950;28;20259;-60
2020/12/03 11:15:04;;;;;;;5.93;3.80;;;32.90;55.40;;;;;;5038550;28;20690;-61
2020/12/03 11:18:01;;;;;;;4.63;4.20;;;32.80;55.60;;;;;;5038358;28;20240;-60
2020/12/03 11:20:59;;;;;;;4.80;4.40;;;32.80;55.70;;;;;;5030578;28;20222;-59
2020/12/03 11:23:33;;;;;;;5.63;4.45;;;32.70;55.70;;;;;;5026807;28;20230;-58
2020/12/03 11:26:10;;;;;;;5.03;4.63;;;32.70;55.90;;;;;;5031922;28;20238;-57
2020/12/03 11:28:44;;;;;;;6.28;4.60;;;32.60;56.00;;;;;;5024495;28;20778;-58
2020/12/03 11:31:32;;;;;;;5.03;4.07;;;32.60;56.00;;;;;;5036042;28;20263;-57
2020/12/03 11:34:03;;;;;;;4.53;4.13;;;32.50;56.20;;;;;;5034521;28;20229;-59
2020/12/03 11:36:35;;;;;;;7.70;4.65;;;32.50;56.30;;;;;;5030141;28;20908;-59
2020/12/03 11:39:06;;;;;;;5.25;4.47;;;32.40;56.40;;;;;;5056416;28;20305;-60
2020/12/03 11:41:56;;;;;;;4.95;4.18;;;32.40;56.50;;;;;;5101563;28;20980;-60
2020/12/03 11:44:46;;;;;;;4.63;4.22;;;32.30;56.60;;;;;;5094858;28;20319;-61
2020/12/03 11:47:47;;;;;;;6.28;4.63;;;32.30;56.60;;;;;;5091386;28;20232;-60
2020/12/03 11:50:19;;;;;;;5.72;4.47;;;32.20;57.00;;;;;;5097344;28;20223;-60
2020/12/03 11:52:49;;;;;;;5.65;4.88;;;32.20;57.10;;;;;;5105636;28;20246;-58
2020/12/03 11:55:20;;;;;;;6.47;5.13;;;32.20;57.10;;;;;;5102476;27;20729;-60
2020/12/03 11:57:52;;;;;;;5.53;5.03;;;32.20;57.20;;;;;;5098552;28;20232;-58
2020/12/03 12:00:23;;;;;;;5.35;4.85;;;32.10;57.30;;;;;;5105086;28;20231;-59
2020/12/03 12:02:54;;;;;;;5.85;4.85;;;32.10;57.60;;;;;;5105033;27;20330;-59
2020/12/03 12:05:32;;;;;;;5.07;4.53;;;32.10;57.70;;;;;;5105611;27;20227;-59
2020/12/03 12:08:11;;;;;;;5.65;5.15;;;32.00;57.70;;;;;;5092465;28;20325;-60
2020/12/03 12:10:47;;;;;;;6.32;5.72;;;32.00;57.70;;;;;;5096088;28;20232;-60
2020/12/03 12:13:18;;;;;;;8.05;6.35;;;32.00;57.90;;;;;;5097377;28;20227;-60
2020/12/03 12:15:49;;;;;;;6.13;5.30;;;31.90;58.00;;;;;;5099189;28;20266;-60
2020/12/03 12:18:22;;;;;;;6.80;6.20;;;31.90;58.20;;;;;;5095284;28;20637;-59
2020/12/03 12:20:53;;;;;;;7.13;6.53;;;31.90;58.40;;;;;;5104602;28;20226;-60
2020/12/03 12:23:24;;;;;;;8.27;7.47;;;31.90;58.50;;;;;;5102517;28;20718;-59
2020/12/03 12:25:55;;;;;;;7.35;6.38;;;31.80;58.60;;;;;;5097606;27;20238;-60
2020/12/03 12:28:27;;;;;;;7.40;6.05;;;31.80;58.80;;;;;;5104469;28;20314;-58
2020/12/03 12:30:58;;;;;;;8.43;5.32;;;31.80;59.00;;;;;;5105431;27;20224;-59
2020/12/03 12:33:28;;;;;;;6.20;5.60;;;31.70;58.90;;;;;;5090941;28;20236;-60
2020/12/03 12:35:59;;;;;;;11.65;7.32;;;31.70;59.00;;;;;;5097392;28;20232;-60
2020/12/03 12:38:29;;;;;;;8.02;6.53;;;31.70;59.10;;;;;;5097522;28;20296;-60
2020/12/03 12:41:01;;;;;;;6.15;5.55;;;31.70;59.30;;;;;;5097730;28;20984;-60
2020/12/03 12:43:33;;;;;;;9.70;6.72;;;31.60;59.30;;;;;;5099021;28;20233;-58
2020/12/03 12:46:03;;;;;;;7.78;6.97;;;31.60;59.50;;;;;;5090532;28;20229;-60
2020/12/03 12:48:33;;;;;;;9.18;7.22;;;31.60;59.60;;;;;;5098710;28;20231;-61
2020/12/03 12:51:04;;;;;;;8.45;6.28;;;31.50;59.60;;;;;;5107083;27;20234;-60
2020/12/03 12:53:36;;;;;;;8.30;6.85;;;31.50;59.80;;;;;;5099784;27;20749;-61
2020/12/03 12:56:10;;;;;;;9.75;6.85;;;31.50;59.90;;;;;;5106604;28;20270;-59
2020/12/03 12:58:42;;;;;;;8.50;6.38;;;31.50;60.00;;;;;;5039656;28;20241;-60
2020/12/03 13:01:12;;;;;;;6.65;6.05;;;31.40;59.90;;;;;;5044873;28;20326;-58
2020/12/03 13:03:43;;;;;;;8.35;6.32;;;31.40;60.00;;;;;;5045782;28;20697;-60
2020/12/03 13:06:14;;;;;;;6.72;6.13;;;31.40;60.10;;;;;;5046391;28;20751;-59
2020/12/03 13:08:45;;;;;;;6.93;6.22;;;31.30;60.40;;;;;;5046098;28;20614;-61
2020/12/03 13:11:15;;;;;;;6.45;5.60;;;31.30;60.50;;;;;;5048181;28;20226;-60
2020/12/03 13:13:47;;;;;;;6.88;6.15;;;31.30;60.70;;;;;;5044310;28;20740;-60
2020/12/03 13:16:22;;;;;;;6.75;6.15;;;31.20;60.80;;;;;;5043411;28;20233;-61
2020/12/03 13:18:52;;;;;;;8.05;6.18;;;31.20;60.90;;;;;;5046777;28;20239;-58
2020/12/03 13:21:32;;;;;;;8.57;6.75;;;31.20;61.50;;;;;;5039129;28;20236;-61
2020/12/03 13:24:03;;;;;;;7.40;6.70;;;31.20;61.50;;;;;;5034738;28;20352;-59
2020/12/03 13:26:41;;;;;;;8.35;6.47;;;31.10;61.30;;;;;;5040634;28;20282;-60
2020/12/03 13:29:18;;;;;;;6.65;5.95;;;31.10;61.30;;;;;;5061562;27;20231;-61